Time;durP1;ratioP1;P1;durP2;ratioP2;P2;SDS_P1;SDS_P2;PMS_P1;PMS_P2;Temp;Humidity;BMP_temperature;BMP_pressure;BME280_temperature;BME280_humidity;BME280_pressure;Samples;Min_cycle;Max_cycle;Signal;HPM_P1;HPM_P2
2022/03/20 00:00:01;;;;;;;0.20;0.20;;;;;;;23.38;13.62;103131.22;5089028;28;20029;-75
2022/03/20 00:02:30;;;;;;;0.40;0.20;;;;;;;23.39;13.73;103127.44;5089071;28;20025;-75
2022/03/20 00:04:56;;;;;;;0.20;0.20;;;;;;;23.39;13.55;103130.19;5089312;28;20025;-75
2022/03/20 00:07:21;;;;;;;0.20;0.20;;;;;;;23.39;13.66;103126.63;5088774;28;20047;-75
2022/03/20 00:09:50;;;;;;;0.20;0.20;;;;;;;23.37;13.58;103128.69;5088489;28;20027;-75
2022/03/20 00:12:19;;;;;;;0.30;0.20;;;;;;;23.37;13.62;103131.41;5088517;28;20020;-76
2022/03/20 00:14:45;;;;;;;0.20;0.20;;;;;;;23.37;13.61;103118.63;5088266;28;20032;-76
2022/03/20 00:17:10;;;;;;;0.22;0.20;;;;;;;23.36;13.63;103130.59;5088337;28;20044;-76
2022/03/20 00:19:37;;;;;;;0.35;0.20;;;;;;;23.36;13.79;103127.84;5088030;28;20017;-74
2022/03/20 00:22:03;;;;;;;0.60;0.25;;;;;;;23.38;13.62;103131.22;5088208;28;20482;-75
2022/03/20 00:24:28;;;;;;;0.20;0.20;;;;;;;23.35;13.71;103118.00;5088470;28;20076;-75
2022/03/20 00:26:56;;;;;;;0.30;0.20;;;;;;;23.39;13.78;103123.88;5070590;28;20024;-75
2022/03/20 00:29:26;;;;;;;0.30;0.30;;;;;;;23.35;13.79;103122.59;5087833;28;20158;-76
2022/03/20 00:31:52;;;;;;;0.20;0.20;;;;;;;23.37;13.78;103115.03;5088390;28;20036;-75
2022/03/20 00:34:17;;;;;;;0.20;0.20;;;;;;;23.37;13.76;103121.38;5088273;28;20028;-76
2022/03/20 00:36:42;;;;;;;0.50;0.30;;;;;;;23.33;13.73;103119.25;5088055;28;20037;-75
2022/03/20 00:39:08;;;;;;;0.30;0.30;;;;;;;23.37;13.79;103120.50;5088034;28;20051;-75
2022/03/20 00:41:33;;;;;;;0.30;0.30;;;;;;;23.36;13.62;103105.19;5088163;28;20043;-74
2022/03/20 00:43:59;;;;;;;0.30;0.30;;;;;;;23.36;13.73;103103.28;5088715;28;20032;-76
2022/03/20 00:46:25;;;;;;;0.30;0.20;;;;;;;23.33;13.60;103100.97;5088968;28;20028;-76
2022/03/20 00:48:50;;;;;;;0.20;0.20;;;;;;;23.36;13.88;103103.28;5087860;28;20040;-75
2022/03/20 00:51:15;;;;;;;0.30;0.30;;;;;;;23.35;13.73;103096.19;5086203;28;20039;-75
2022/03/20 00:53:41;;;;;;;0.20;0.20;;;;;;;23.35;13.74;103096.19;5087459;28;20328;-74
2022/03/20 00:56:07;;;;;;;0.25;0.25;;;;;;;23.34;13.58;103102.66;5087448;28;20031;-76
2022/03/20 00:58:33;;;;;;;0.30;0.30;;;;;;;23.34;13.92;103108.13;5088495;28;20032;-75
2022/03/20 01:00:58;;;;;;;0.20;0.20;;;;;;;23.32;13.76;103102.03;5087857;28;20043;-76
2022/03/20 01:03:23;;;;;;;0.30;0.30;;;;;;;23.34;13.66;103101.84;5070510;28;20024;-75
2022/03/20 01:05:49;;;;;;;0.47;0.40;;;;;;;23.33;13.73;103098.25;5088407;28;20048;-74
2022/03/20 01:08:14;;;;;;;0.30;0.20;;;;;;;23.34;13.52;103097.22;5089178;28;20017;-75
2022/03/20 01:10:40;;;;;;;0.35;0.20;;;;;;;23.35;13.61;103095.31;5088304;28;20024;-75
2022/03/20 01:13:05;;;;;;;0.45;0.40;;;;;;;23.34;13.56;103091.75;5088665;28;20493;-75
2022/03/20 01:15:31;;;;;;;0.20;0.20;;;;;;;23.35;13.73;103098.03;5088209;28;20046;-76
2022/03/20 01:17:57;;;;;;;0.20;0.20;;;;;;;23.35;13.61;103100.78;5088437;28;20108;-76
2022/03/20 01:20:23;;;;;;;0.20;0.20;;;;;;;23.35;13.73;103089.84;5087516;28;20043;-75
2022/03/20 01:22:49;;;;;;;0.30;0.28;;;;;;;23.35;13.61;103090.72;5089102;28;20082;-75
2022/03/20 01:25:15;;;;;;;0.20;0.20;;;;;;;23.34;13.69;103094.50;5087970;28;20036;-75
2022/03/20 01:27:42;;;;;;;0.20;0.20;;;;;;;23.33;13.66;103086.50;5087381;28;20033;-75
2022/03/20 01:30:08;;;;;;;0.32;0.32;;;;;;;23.33;13.60;103090.06;5088693;28;20047;-75
2022/03/20 01:32:34;;;;;;;0.20;0.20;;;;;;;23.32;13.86;103079.34;5085465;28;20050;-76
2022/03/20 01:34:59;;;;;;;0.30;0.30;;;;;;;23.33;13.75;103086.50;5084253;28;20032;-76
2022/03/20 01:37:25;;;;;;;0.22;0.22;;;;;;;23.34;13.81;103094.50;5084706;28;20036;-76
2022/03/20 01:39:52;;;;;;;0.28;0.28;;;;;;;23.34;13.56;103085.47;5084285;28;20031;-76
2022/03/20 01:42:17;;;;;;;0.25;0.22;;;;;;;23.34;13.66;103083.56;5086721;28;20515;-75
2022/03/20 01:44:43;;;;;;;0.50;0.40;;;;;;;23.32;13.74;103091.13;5085654;28;20047;-76
2022/03/20 01:47:08;;;;;;;0.20;0.20;;;;;;;23.32;13.74;103095.72;5085692;28;20039;-76
2022/03/20 01:49:34;;;;;;;0.20;0.20;;;;;;;23.33;13.79;103100.16;5085378;28;20034;-76
2022/03/20 01:52:11;;;;;;;0.20;0.20;;;;;;;23.33;13.58;103090.06;5085512;28;20032;-75
2022/03/20 01:54:46;;;;;;;0.25;0.25;;;;;;;23.32;13.74;103085.69;5085171;28;20132;-77
2022/03/20 01:57:16;;;;;;;0.20;0.20;;;;;;;23.31;13.60;103086.72;5085821;28;20042;-75
2022/03/20 01:59:42;;;;;;;0.45;0.30;;;;;;;23.29;13.75;103080.63;5088322;28;20028;-75
2022/03/20 02:02:08;;;;;;;0.40;0.25;;;;;;;23.31;13.75;103099.53;5090233;28;20025;-76
2022/03/20 02:04:34;;;;;;;0.20;0.20;;;;;;;23.23;13.54;103081.44;5089900;28;20026;-75
2022/03/20 02:07:00;;;;;;;0.30;0.30;;;;;;;23.30;13.82;103082.31;5089256;28;20047;-75
2022/03/20 02:09:25;;;;;;;0.20;0.20;;;;;;;23.31;13.69;103083.16;5089655;28;20028;-75
2022/03/20 02:11:51;;;;;;;0.20;0.20;;;;;;;23.33;13.76;103086.50;5071512;28;20031;-75
2022/03/20 02:14:16;;;;;;;0.20;0.20;;;;;;;23.31;13.74;103072.22;5089630;28;20475;-75
2022/03/20 02:16:42;;;;;;;0.20;0.20;;;;;;;23.32;13.54;103071.16;5089544;28;20028;-75
2022/03/20 02:19:08;;;;;;;0.20;0.20;;;;;;;23.32;13.61;103071.16;5054873;28;20039;-75
2022/03/20 02:21:36;;;;;;;0.20;0.20;;;;;;;23.30;13.57;103068.69;5089753;28;20036;-76
2022/03/20 02:24:02;;;;;;;0.20;0.20;;;;;;;23.31;13.52;103064.88;5089332;28;20051;-75
2022/03/20 02:26:29;;;;;;;0.20;0.20;;;;;;;23.31;13.59;103064.06;5091551;28;20044;-77
2022/03/20 02:28:54;;;;;;;0.40;0.30;;;;;;;23.31;13.56;103067.59;5092156;28;20036;-76
2022/03/20 02:31:21;;;;;;;0.30;0.30;;;;;;;23.29;13.42;103069.72;5091321;28;20029;-75
2022/03/20 02:33:46;;;;;;;0.20;0.20;;;;;;;23.30;13.67;103065.09;5090208;28;20080;-78
2022/03/20 02:36:12;;;;;;;0.25;0.25;;;;;;;23.28;13.55;103057.09;5089702;28;20473;-78
2022/03/20 02:38:37;;;;;;;0.20;0.20;;;;;;;23.30;13.42;103065.09;5072787;28;20114;-76
2022/03/20 02:41:14;;;;;;;0.30;0.30;;;;;;;23.28;13.50;103057.09;5090193;28;20050;-77
2022/03/20 02:43:49;;;;;;;0.30;0.20;;;;;;;23.32;13.52;103058.38;5074799;28;20032;-76
2022/03/20 02:46:15;;;;;;;0.20;0.20;;;;;;;23.31;13.57;103050.41;5091794;28;20025;-75
2022/03/20 02:48:40;;;;;;;0.28;0.28;;;;;;;23.29;13.60;103036.13;5092251;28;20027;-76
2022/03/20 02:51:06;;;;;;;0.40;0.38;;;;;;;23.29;13.57;103036.97;5058255;28;20032;-75
2022/03/20 02:53:34;;;;;;;0.20;0.20;;;;;;;23.26;13.44;103037.38;5095340;28;20025;-78
2022/03/20 02:56:00;;;;;;;0.30;0.30;;;;;;;23.28;13.42;103046.19;5094251;28;20475;-78
2022/03/20 02:58:27;;;;;;;0.20;0.20;;;;;;;23.28;13.56;103046.19;5095184;28;20074;-77
2022/03/20 03:00:54;;;;;;;0.30;0.30;;;;;;;23.29;13.43;103050.63;5093880;28;20363;-78
2022/03/20 03:03:20;;;;;;;0.22;0.22;;;;;;;23.30;13.68;103056.91;5093519;28;20473;-77
2022/03/20 03:05:46;;;;;;;0.20;0.20;;;;;;;23.28;13.34;103051.66;5094510;28;20048;-76
2022/03/20 03:10:56;;;;;;;0.30;0.30;;;;;;;23.31;13.72;103045.78;5093129;28;20095;-77
2022/03/20 03:13:34;;;;;;;0.30;0.30;;;;;;;23.27;13.68;103044.53;5093469;28;20086;-76
2022/03/20 03:16:07;;;;;;;0.35;0.25;;;;;;;23.27;13.63;103032.75;5092882;28;20031;-77
2022/03/20 03:18:33;;;;;;;0.20;0.20;;;;;;;23.29;13.77;103034.25;5093312;28;20021;-77
2022/03/20 03:20:59;;;;;;;0.35;0.30;;;;;;;23.30;13.69;103043.25;5091105;28;20052;-76
2022/03/20 03:23:25;;;;;;;0.20;0.20;;;;;;;23.28;13.58;103034.44;5091286;28;20078;-76
2022/03/20 03:25:50;;;;;;;0.10;0.10;;;;;;;23.25;13.68;103027.53;5090573;28;20020;-75
2022/03/20 03:28:15;;;;;;;0.25;0.20;;;;;;;23.27;13.74;103033.63;5091486;28;20021;-74
2022/03/20 03:30:45;;;;;;;0.30;0.30;;;;;;;23.27;13.86;103039.06;5090322;28;20039;-75
2022/03/20 03:33:11;;;;;;;0.20;0.20;;;;;;;23.27;13.66;103039.06;5090441;28;20033;-76
2022/03/20 03:35:43;;;;;;;0.30;0.30;;;;;;;23.29;13.90;103041.59;5090209;28;20028;-75
2022/03/20 03:38:30;;;;;;;0.20;0.20;;;;;;;23.33;13.91;103038.22;5090526;28;20017;-75
2022/03/20 03:40:55;;;;;;;0.22;0.22;;;;;;;23.28;13.89;103046.19;5071915;28;20032;-75
2022/03/20 03:43:21;;;;;;;0.20;0.20;;;;;;;23.29;13.76;103042.44;5072582;28;20024;-76
2022/03/20 03:45:47;;;;;;;0.20;0.20;;;;;;;23.28;13.90;103040.75;5089251;28;20024;-75
2022/03/20 03:48:12;;;;;;;0.63;0.40;;;;;;;23.28;13.92;103034.44;5090856;28;20028;-75
2022/03/20 03:50:39;;;;;;;0.30;0.30;;;;;;;23.25;13.83;103035.72;5091041;28;20040;-75
2022/03/20 03:53:05;;;;;;;0.25;0.25;;;;;;;23.27;13.96;103063.63;5091280;28;20114;-76
2022/03/20 03:55:31;;;;;;;0.20;0.20;;;;;;;23.25;14.09;103052.09;5090301;28;20048;-75
2022/03/20 03:57:57;;;;;;;0.20;0.20;;;;;;;23.25;14.00;103049.38;5089866;28;20024;-75
2022/03/20 04:00:24;;;;;;;0.20;0.20;;;;;;;23.25;13.91;103055.66;5089857;28;20512;-75
2022/03/20 04:02:49;;;;;;;0.20;0.20;;;;;;;23.26;14.15;103051.03;5088648;28;20029;-75
2022/03/20 04:05:15;;;;;;;0.20;0.20;;;;;;;23.28;13.86;103046.19;5090474;28;20028;-76
2022/03/20 04:07:41;;;;;;;0.20;0.20;;;;;;;23.24;13.93;103043.03;5071213;28;20049;-74
2022/03/20 04:10:06;;;;;;;0.20;0.20;;;;;;;23.24;13.96;103044.94;5051708;28;20026;-76
2022/03/20 04:12:33;;;;;;;0.20;0.20;;;;;;;23.25;14.03;103046.63;5070656;28;20036;-76
2022/03/20 04:15:02;;;;;;;0.30;0.30;;;;;;;23.25;14.00;103044.75;5069940;28;20031;-75
2022/03/20 04:17:29;;;;;;;0.28;0.28;;;;;;;23.25;14.03;103052.91;5070175;28;20036;-76
2022/03/20 04:19:54;;;;;;;0.30;0.20;;;;;;;23.25;14.27;103049.38;5070230;28;20025;-75
2022/03/20 04:22:19;;;;;;;0.20;0.20;;;;;;;23.25;14.16;103050.19;5053109;28;20036;-75
2022/03/20 04:24:45;;;;;;;0.20;0.20;;;;;;;23.25;14.25;103052.09;5070306;28;20047;-75
2022/03/20 04:27:11;;;;;;;0.30;0.28;;;;;;;23.26;14.18;103045.56;5070170;28;20029;-75
2022/03/20 04:29:37;;;;;;;0.20;0.20;;;;;;;23.25;14.29;103052.09;5070869;28;20033;-76
2022/03/20 04:32:02;;;;;;;0.20;0.20;;;;;;;23.25;14.30;103052.91;5068661;28;20033;-75
2022/03/20 04:34:27;;;;;;;0.30;0.30;;;;;;;23.26;14.31;103053.75;5069503;28;20025;-75
2022/03/20 04:36:56;;;;;;;0.30;0.30;;;;;;;23.25;14.38;103049.38;5068773;28;20522;-75
2022/03/20 04:39:22;;;;;;;0.30;0.30;;;;;;;23.26;14.42;103056.47;5069397;28;20401;-76
2022/03/20 04:41:47;;;;;;;0.10;0.10;;;;;;;23.25;14.64;103063.00;5069448;28;20080;-75
2022/03/20 04:44:13;;;;;;;0.20;0.20;;;;;;;23.24;14.61;103056.69;5069997;28;20025;-76
2022/03/20 04:46:39;;;;;;;0.20;0.20;;;;;;;23.24;14.69;103073.06;5070060;28;20036;-75
2022/03/20 05:00:21;;;;;;;0.30;0.28;;;;;;;23.27;14.84;103063.63;5006049;28;20053;-76
2022/03/20 05:02:48;;;;;;;0.30;0.30;;;;;;;23.25;14.79;103073.91;5001408;28;20030;-75
2022/03/20 05:05:14;;;;;;;0.77;0.10;;;;;;;23.24;15.00;103077.69;4997821;28;20030;-75
2022/03/20 05:07:39;;;;;;;0.30;0.30;;;;;;;23.23;14.90;103078.72;5014850;28;20141;-75
2022/03/20 05:15:33;;;;;;;0.30;0.30;;;;;;;23.25;14.93;103080.22;5016137;28;20044;-75
2022/03/20 05:17:58;;;;;;;0.20;0.20;;;;;;;23.25;15.13;103090.28;5016300;28;20038;-75
2022/03/20 05:20:25;;;;;;;0.20;0.20;;;;;;;23.26;15.03;103100.13;5016532;28;20492;-75
2022/03/20 05:22:50;;;;;;;0.20;0.20;;;;;;;23.22;15.08;103080.63;5015768;28;20073;-76
2022/03/20 05:25:16;;;;;;;0.30;0.30;;;;;;;23.24;15.38;103091.31;5037982;28;20478;-76
2022/03/20 05:27:42;;;;;;;0.20;0.20;;;;;;;23.25;15.11;103103.94;5060356;28;20155;-75
2022/03/20 05:30:08;;;;;;;0.20;0.20;;;;;;;23.25;15.20;103101.19;5077926;28;20055;-75
2022/03/20 05:32:34;;;;;;;0.20;0.20;;;;;;;23.24;15.18;103100.34;5078298;28;20024;-76
2022/03/20 05:35:00;;;;;;;0.30;0.30;;;;;;;23.19;15.26;103082.91;5077755;28;20040;-75
2022/03/20 05:37:26;;;;;;;0.20;0.20;;;;;;;23.25;15.27;103093.00;5077579;28;20028;-75
2022/03/20 05:39:51;;;;;;;0.50;0.35;;;;;;;23.26;15.19;103102.88;5077556;28;20138;-75
2022/03/20 05:42:17;;;;;;;0.30;0.30;;;;;;;23.26;15.38;103113.78;5060241;28;20422;-76
2022/03/20 05:44:46;;;;;;;0.17;0.17;;;;;;;23.26;15.40;103116.50;5078207;28;20032;-75
2022/03/20 05:47:11;;;;;;;0.47;0.40;;;;;;;23.19;15.49;103102.00;5077929;28;20024;-75
2022/03/20 05:49:38;;;;;;;0.20;0.20;;;;;;;23.27;15.54;103114.59;5078553;28;20021;-76
2022/03/20 05:52:07;;;;;;;0.20;0.20;;;;;;;23.19;15.50;103104.75;5077606;28;20032;-75
2022/03/20 05:54:36;;;;;;;0.30;0.30;;;;;;;23.22;15.41;103101.59;5077495;28;20047;-76
2022/03/20 05:59:45;;;;;;;0.43;0.30;;;;;;;23.27;15.46;103109.16;5078581;28;20035;-75
2022/03/20 06:02:11;;;;;;;0.20;0.20;;;;;;;23.23;15.60;103103.28;5078021;28;20033;-75
2022/03/20 06:04:38;;;;;;;0.32;0.22;;;;;;;23.28;15.62;103121.75;5078212;28;20154;-75
2022/03/20 06:07:04;;;;;;;0.20;0.20;;;;;;;23.31;15.53;103124.91;5063436;28;20048;-75
2022/03/20 06:09:30;;;;;;;0.20;0.20;;;;;;;23.32;15.69;103128.47;5057330;28;20028;-75
2022/03/20 06:11:56;;;;;;;0.20;0.20;;;;;;;23.31;15.60;103127.63;5057147;28;20375;-76
2022/03/20 06:14:21;;;;;;;0.20;0.20;;;;;;;23.26;15.63;103130.16;5057191;28;20075;-75
2022/03/20 06:16:48;;;;;;;0.20;0.20;;;;;;;23.32;15.59;103132.06;5057439;28;20021;-75
2022/03/20 06:19:14;;;;;;;0.20;0.20;;;;;;;23.34;15.71;103140.03;5057544;28;20053;-76
2022/03/20 06:21:40;;;;;;;0.20;0.20;;;;;;;23.32;15.88;103148.44;5057218;28;20064;-76
2022/03/20 06:24:05;;;;;;;0.20;0.20;;;;;;;23.34;15.78;103146.31;5057945;28;20041;-75
2022/03/20 06:26:31;;;;;;;0.30;0.30;;;;;;;23.34;15.56;103146.31;5059566;28;20344;-76
2022/03/20 06:28:56;;;;;;;0.32;0.30;;;;;;;23.35;15.80;103167.13;5061478;28;20029;-74
2022/03/20 06:31:22;;;;;;;0.20;0.20;;;;;;;23.37;15.81;103156.84;5061096;28;20442;-75
2022/03/20 06:33:47;;;;;;;0.20;0.20;;;;;;;23.34;15.69;103154.50;5060498;28;20021;-75
2022/03/20 06:36:13;;;;;;;0.25;0.20;;;;;;;23.38;15.70;103158.50;5060700;28;20071;-76
2022/03/20 06:38:39;;;;;;;0.30;0.30;;;;;;;23.37;15.73;103165.03;5060534;28;20485;-76
2022/03/20 06:41:05;;;;;;;0.20;0.20;;;;;;;23.39;15.80;103167.56;5060249;28;20032;-75
2022/03/20 06:43:30;;;;;;;0.30;0.30;;;;;;;23.38;15.85;103161.22;5060067;28;20025;-75
2022/03/20 06:45:56;;;;;;;0.25;0.25;;;;;;;23.39;15.90;103157.47;5060456;28;20028;-75
2022/03/20 06:48:22;;;;;;;0.30;0.20;;;;;;;23.37;15.78;103153.25;5060891;28;20087;-76
2022/03/20 06:50:47;;;;;;;0.20;0.20;;;;;;;23.39;15.72;103160.19;5060552;28;20466;-75
2022/03/20 06:53:13;;;;;;;0.30;0.30;;;;;;;23.40;15.85;103161.88;5060186;28;20025;-76
2022/03/20 06:55:38;;;;;;;0.30;0.28;;;;;;;23.42;15.79;103161.66;5059605;28;20021;-75
2022/03/20 06:58:04;;;;;;;0.40;0.30;;;;;;;23.41;15.73;103169.00;5059793;28;20017;-74
2022/03/20 07:00:30;;;;;;;0.25;0.20;;;;;;;23.42;15.79;103156.19;5058835;28;20029;-76
2022/03/20 07:03:00;;;;;;;0.38;0.28;;;;;;;23.40;15.94;103158.31;5058237;28;20047;-76
2022/03/20 07:05:26;;;;;;;0.30;0.30;;;;;;;23.41;16.05;103155.38;5058412;28;20025;-75
2022/03/20 07:07:52;;;;;;;0.32;0.22;;;;;;;23.44;15.99;103162.31;5078067;28;20036;-76
2022/03/20 07:10:21;;;;;;;0.52;0.40;;;;;;;23.43;15.92;103161.44;5078116;28;20477;-76
2022/03/20 07:12:46;;;;;;;0.73;0.32;;;;;;;23.49;15.77;103167.13;5078135;28;20490;-76
2022/03/20 07:15:12;;;;;;;0.22;0.20;;;;;;;23.48;15.97;103171.75;5078288;28;20033;-76
2022/03/20 07:17:37;;;;;;;0.30;0.30;;;;;;;23.42;15.92;103162.53;5079095;28;20028;-76
2022/03/20 07:20:09;;;;;;;0.30;0.30;;;;;;;23.50;15.85;103171.56;5060867;28;20052;-76
2022/03/20 07:22:34;;;;;;;0.52;0.35;;;;;;;23.48;16.10;103166.31;5078605;28;20047;-76
2022/03/20 07:29:29;;;;;;;0.20;0.20;;;;;;;23.49;16.00;103158.94;5078372;28;20032;-75
2022/03/20 07:30:29;;;;;;;1.48;0.22;;;;;;;23.55;15.81;103156.22;5077975;28;20036;-75
2022/03/20 07:32:54;;;;;;;0.20;0.20;;;;;;;23.53;15.92;103152.03;5077700;28;20028;-75
2022/03/20 07:35:20;;;;;;;0.52;0.30;;;;;;;23.55;15.96;103150.78;5077881;28;20028;-76
2022/03/20 07:37:45;;;;;;;0.22;0.20;;;;;;;23.55;16.13;103149.94;5078186;28;20082;-75
2022/03/20 07:40:11;;;;;;;0.20;0.20;;;;;;;23.55;16.04;103145.31;5078691;28;20029;-75
2022/03/20 07:42:37;;;;;;;0.15;0.15;;;;;;;23.57;16.40;103154.13;5060923;28;20107;-76
2022/03/20 07:45:03;;;;;;;0.30;0.30;;;;;;;23.56;16.10;103146.16;5079045;28;20069;-75
2022/03/20 07:47:28;;;;;;;0.47;0.22;;;;;;;23.57;16.37;103142.38;5079775;28;20414;-75
2022/03/20 07:49:54;;;;;;;0.30;0.20;;;;;;;23.59;16.53;103146.59;5078586;28;20489;-75
2022/03/20 07:52:19;;;;;;;0.30;0.30;;;;;;;23.60;16.30;103152.88;5078679;28;20024;-75
2022/03/20 07:54:45;;;;;;;0.38;0.38;;;;;;;23.61;16.34;103149.09;5078759;28;20455;-76
2022/03/20 07:57:11;;;;;;;0.20;0.20;;;;;;;23.61;16.55;103160.00;5078662;28;20028;-76
2022/03/20 07:59:36;;;;;;;0.32;0.20;;;;;;;23.63;16.56;103157.94;5078454;28;20414;-75
2022/03/20 08:02:02;;;;;;;0.47;0.20;;;;;;;23.63;16.55;103152.47;5078352;28;20029;-76
2022/03/20 08:04:27;;;;;;;1.60;0.30;;;;;;;23.65;16.43;103150.38;5078995;28;20066;-75
2022/03/20 08:06:53;;;;;;;0.20;0.20;;;;;;;23.66;16.74;103149.31;5078103;28;20048;-76
2022/03/20 08:09:18;;;;;;;0.40;0.40;;;;;;;23.68;16.59;103155.44;5077622;28;20028;-76
2022/03/20 08:11:43;;;;;;;0.20;0.20;;;;;;;23.68;16.66;103151.84;5077350;28;20386;-75
2022/03/20 08:14:09;;;;;;;0.50;0.30;;;;;;;23.69;16.48;103151.63;5077089;28;20032;-76
2022/03/20 08:16:39;;;;;;;0.30;0.30;;;;;;;23.69;16.77;103151.63;5059836;28;20021;-76
2022/03/20 08:19:05;;;;;;;0.20;0.20;;;;;;;23.70;16.53;103150.59;5077060;28;20028;-75
2022/03/20 08:21:33;;;;;;;0.20;0.20;;;;;;;23.67;16.78;103153.72;5076760;28;20028;-75
2022/03/20 08:24:02;;;;;;;0.20;0.20;;;;;;;23.71;16.83;103157.72;5076424;28;20052;-75
2022/03/20 08:26:31;;;;;;;0.45;0.30;;;;;;;23.74;16.77;103153.75;5076690;28;20074;-76
2022/03/20 08:28:59;;;;;;;0.47;0.28;;;;;;;23.73;16.65;103158.38;5077141;28;20063;-75
2022/03/20 08:31:24;;;;;;;0.28;0.20;;;;;;;23.74;16.72;103159.19;5076844;28;20116;-75
2022/03/20 08:33:50;;;;;;;0.30;0.30;;;;;;;23.76;16.58;103157.94;5077064;28;20024;-76
2022/03/20 08:36:15;;;;;;;0.38;0.30;;;;;;;23.77;16.67;103156.06;5076673;28;20025;-75
2022/03/20 08:38:41;;;;;;;0.20;0.20;;;;;;;23.76;16.80;103166.13;5077161;28;20029;-75
2022/03/20 08:41:07;;;;;;;0.40;0.32;;;;;;;23.77;16.82;103158.78;5077511;28;20024;-76
2022/03/20 08:43:32;;;;;;;0.60;0.30;;;;;;;23.77;16.65;103164.25;5078132;28;20036;-76
2022/03/20 08:45:58;;;;;;;1.00;0.38;;;;;;;23.78;16.86;103164.03;5078760;28;20021;-76
2022/03/20 08:48:23;;;;;;;0.40;0.30;;;;;;;23.78;16.91;103164.03;5077680;28;20016;-76
2022/03/20 08:50:48;;;;;;;0.20;0.20;;;;;;;23.83;16.95;103173.53;5077164;28;20038;-76
2022/03/20 08:53:20;;;;;;;0.20;0.20;;;;;;;23.83;16.79;103170.78;5077236;28;20051;-75
2022/03/20 08:55:46;;;;;;;0.30;0.30;;;;;;;23.84;16.62;103167.03;5078331;28;20016;-75
2022/03/20 08:58:11;;;;;;;0.43;0.43;;;;;;;23.83;16.69;103168.88;5077610;28;20025;-75
2022/03/20 09:00:37;;;;;;;0.30;0.30;;;;;;;23.84;16.50;103165.13;5077779;28;20033;-75
2022/03/20 09:03:02;;;;;;;0.85;0.32;;;;;;;23.84;16.91;103170.59;5077725;28;20096;-76
2022/03/20 09:05:28;;;;;;;0.52;0.30;;;;;;;23.85;16.64;103165.94;5077359;28;20048;-75
2022/03/20 09:07:55;;;;;;;0.30;0.30;;;;;;;23.87;16.73;103159.25;5076473;28;20078;-75
2022/03/20 09:10:21;;;;;;;0.30;0.30;;;;;;;23.87;16.74;103158.38;5076554;28;20086;-76
2022/03/20 09:12:46;;;;;;;0.32;0.30;;;;;;;23.92;16.70;103166.78;5076341;28;20463;-75
2022/03/20 09:15:16;;;;;;;0.20;0.20;;;;;;;23.91;16.77;103170.59;5076609;28;20036;-75
2022/03/20 09:20:26;;;;;;;0.30;0.30;;;;;;;23.95;16.48;103169.09;5076791;28;20031;-75
2022/03/20 09:22:52;;;;;;;0.20;0.20;;;;;;;23.95;16.61;103169.09;5075909;28;20029;-76
2022/03/20 09:25:17;;;;;;;0.50;0.45;;;;;;;23.93;16.80;103174.78;5075976;28;20024;-75
2022/03/20 09:27:43;;;;;;;0.25;0.25;;;;;;;23.94;16.58;103181.06;5075792;28;20340;-75
2022/03/20 09:30:10;;;;;;;0.20;0.20;;;;;;;23.96;16.83;103174.38;5075728;28;20024;-76
2022/03/20 09:32:35;;;;;;;0.25;0.25;;;;;;;23.99;16.64;103176.69;5075381;28;20020;-76
2022/03/20 09:35:01;;;;;;;0.30;0.30;;;;;;;24.01;16.84;103171.00;5075495;28;20031;-76
2022/03/20 09:37:26;;;;;;;0.40;0.30;;;;;;;23.99;16.71;103173.09;5074807;28;20025;-76
2022/03/20 09:39:52;;;;;;;0.20;0.20;;;;;;;23.99;16.53;103167.63;5075161;28;20372;-76
2022/03/20 09:42:19;;;;;;;0.38;0.30;;;;;;;24.02;16.68;103175.41;5076263;28;20029;-75
2022/03/20 09:44:44;;;;;;;0.25;0.25;;;;;;;24.02;16.59;103172.66;5075549;28;20218;-76
2022/03/20 09:47:13;;;;;;;0.30;0.20;;;;;;;24.02;16.81;103174.56;5075908;28;20130;-76
2022/03/20 09:49:39;;;;;;;0.50;0.30;;;;;;;24.05;16.59;103175.00;5075938;28;20037;-76
2022/03/20 09:52:07;;;;;;;0.28;0.28;;;;;;;24.02;16.58;103163.66;5075784;28;20154;-76
2022/03/20 09:54:36;;;;;;;0.30;0.30;;;;;;;24.04;16.74;103175.19;5058174;28;20024;-75
2022/03/20 09:57:05;;;;;;;0.25;0.22;;;;;;;24.04;16.44;103170.56;5078105;28;20016;-75
2022/03/20 09:59:31;;;;;;;0.20;0.20;;;;;;;24.04;16.73;103169.72;5076531;28;20028;-75
2022/03/20 10:02:10;;;;;;;0.22;0.22;;;;;;;24.08;16.64;103166.38;5079940;28;20028;-74
2022/03/20 10:05:17;;;;;;;0.20;0.20;;;;;;;24.16;16.54;103179.84;5083758;28;20055;-75
2022/03/20 10:07:43;;;;;;;0.30;0.30;;;;;;;24.08;16.46;103180.03;4983411;28;20132;-75
2022/03/20 10:10:20;;;;;;;0.40;0.20;;;;;;;24.07;16.37;103180.25;4983033;28;20050;-74
2022/03/20 10:12:56;;;;;;;0.30;0.30;;;;;;;24.10;16.29;103180.66;4982917;28;20117;-76
2022/03/20 10:15:31;;;;;;;0.30;0.30;;;;;;;24.08;16.08;103177.31;4983289;28;20039;-74
2022/03/20 10:18:06;;;;;;;0.20;0.20;;;;;;;24.08;16.18;103180.03;4983899;28;20046;-75
2022/03/20 10:20:36;;;;;;;0.50;0.30;;;;;;;24.07;15.99;103181.06;4984454;28;20035;-75
2022/03/20 10:23:01;;;;;;;0.30;0.30;;;;;;;24.10;16.11;103174.38;4984127;28;20031;-75
2022/03/20 10:25:26;;;;;;;0.47;0.30;;;;;;;24.07;16.17;103172.06;4968613;28;20031;-75
2022/03/20 10:27:57;;;;;;;0.30;0.30;;;;;;;24.07;16.00;103169.31;4985157;28;20051;-75
2022/03/20 10:30:22;;;;;;;0.28;0.28;;;;;;;24.07;16.19;103161.94;4985879;28;20023;-75
2022/03/20 10:32:48;;;;;;;0.45;0.32;;;;;;;24.06;16.08;103157.56;4986590;28;20087;-75
2022/03/20 10:35:14;;;;;;;0.20;0.20;;;;;;;24.06;15.85;103173.94;4986010;28;20058;-74
2022/03/20 10:37:55;;;;;;;0.35;0.30;;;;;;;24.08;16.03;103171.00;4989523;28;20038;-76
2022/03/20 10:40:25;;;;;;;0.20;0.20;;;;;;;24.04;15.94;103176.03;4989651;28;20031;-75
2022/03/20 10:43:10;;;;;;;0.20;0.20;;;;;;;24.10;15.92;103177.94;5111329;28;20083;-75
2022/03/20 10:46:05;;;;;;;0.20;0.20;;;;;;;24.13;16.11;103177.50;5112624;28;20035;-78
2022/03/20 10:48:35;;;;;;;0.13;0.13;;;;;;;24.05;16.08;103176.88;5033644;28;20041;-79
2022/03/20 10:51:01;;;;;;;0.20;0.20;;;;;;;24.03;15.93;103173.53;5050742;28;20092;-78
2022/03/20 10:53:27;;;;;;;0.15;0.15;;;;;;;24.03;15.89;103170.81;5051682;28;20038;-78
2022/03/20 10:56:08;;;;;;;0.20;0.20;;;;;;;24.07;15.75;103169.31;5052681;28;20033;-78
2022/03/20 10:58:39;;;;;;;0.30;0.30;;;;;;;24.05;15.66;103161.34;5053419;28;20044;-79
2022/03/20 11:01:07;;;;;;;0.28;0.20;;;;;;;24.03;15.98;103159.88;5052755;28;20038;-79
2022/03/20 11:03:33;;;;;;;0.20;0.20;;;;;;;24.04;16.10;103162.38;5053175;28;20033;-78
2022/03/20 11:05:59;;;;;;;0.25;0.25;;;;;;;24.03;16.11;103162.59;5053120;28;20106;-78
2022/03/20 11:08:26;;;;;;;0.75;0.30;;;;;;;24.03;15.99;103166.16;5052364;28;20085;-77
2022/03/20 11:10:52;;;;;;;0.10;0.10;;;;;;;23.97;16.01;103161.53;5046111;28;20033;-78
2022/03/20 11:13:17;;;;;;;0.38;0.25;;;;;;;24.00;16.35;103163.84;5015295;28;20029;-78
2022/03/20 11:15:44;;;;;;;0.30;0.20;;;;;;;24.03;16.20;103163.44;5015257;28;20045;-78
2022/03/20 11:18:09;;;;;;;0.28;0.25;;;;;;;24.03;16.27;103157.97;5032037;28;20583;-77
2022/03/20 11:20:34;;;;;;;0.20;0.20;;;;;;;24.01;16.15;103160.09;5014714;28;20041;-77
2022/03/20 11:23:04;;;;;;;0.20;0.20;;;;;;;24.03;16.15;103155.25;5015644;28;20061;-79
2022/03/20 11:25:30;;;;;;;0.20;0.20;;;;;;;24.03;16.34;103152.50;5044961;28;20295;-78
2022/03/20 11:28:01;;;;;;;0.20;0.20;;;;;;;24.03;16.30;103152.50;5065441;28;20099;-78
2022/03/20 11:30:28;;;;;;;0.20;0.20;;;;;;;24.03;16.08;103147.06;5065835;28;20025;-78
2022/03/20 11:32:56;;;;;;;0.63;0.30;;;;;;;24.02;16.33;103142.63;5066927;28;20147;-77
2022/03/20 11:35:27;;;;;;;0.20;0.20;;;;;;;24.00;16.06;103137.38;5061702;28;20040;-78
2022/03/20 11:37:54;;;;;;;0.63;0.30;;;;;;;24.04;16.30;103143.25;5059809;28;20033;-75
2022/03/20 11:40:22;;;;;;;0.35;0.35;;;;;;;24.04;16.30;103142.41;5061318;28;20025;-75
2022/03/20 11:42:48;;;;;;;0.30;0.30;;;;;;;24.02;16.07;103131.69;5061712;28;20135;-75
2022/03/20 11:45:20;;;;;;;0.43;0.30;;;;;;;24.04;16.25;103128.75;5062120;28;20029;-75
2022/03/20 11:47:50;;;;;;;0.52;0.40;;;;;;;24.04;16.11;103136.94;5062497;28;20048;-75
2022/03/20 11:50:25;;;;;;;0.45;0.40;;;;;;;24.03;16.27;103130.66;5062406;28;20370;-76